Terminal Aerodrome Forecast
Issued by NWS

Home | Current Version | Previous Version | Text Only | Print | Product List | Glossary On
Versions: 1 2 3 4 5 6 7 8 9 10 11 12 13
000
FTUS46 KMFR 020500
TAFLMT
TAF
KLMT 020538Z 0206/0306 21004KT 6SM FU OVC050
     FM030000 32012KT 6SM FU SCT150=

USA.gov is the U.S. government's official web portal to all federal, state and local government web resources and services.